Garden River, Canada
Current Conditions -  °F | °C
As of 12:55 PM on Thursday 29 Jan 2015 (Local Time) from KANJ Reporting Station
Overcast Overcast  
Wind Chill: 27°   Ceiling: 900
Heat Index: 27°   Visibility: 8mi
Dew Point: 22°   Wind: 3mph
Humidity: 81%   Direction: 290°WNW
Pressure: 29.73"   Gusts: NA
Location:  46.55°N, 84.15°W
Report Text: KANJ 291755Z AUTO 29003KT 8SM OVC009 M03/M06 A2973 RMK AO2 SLP077 60008 T10281056 11028 21044 58013
Loading
Personal Weather Stations






























Interactive Weather Map New forecast layout! Learn more

10-Day Weather Forecast

Advertisements
Track Severe Weather on mobile